sensor_id;sensor_type;location;lat;lon;timestamp;P1;durP1;ratioP1;P2;durP2;ratioP2
74624;SDS011;63131;52.298;8.056;2022-10-31T00:01:32;20.10;;;9.83;;
74624;SDS011;63131;52.298;8.056;2022-10-31T00:03:57;14.77;;;9.88;;
74624;SDS011;63131;52.298;8.056;2022-10-31T00:08:52;17.88;;;8.60;;
74624;SDS011;63131;52.298;8.056;2022-10-31T00:11:17;18.98;;;10.30;;
74624;SDS011;63131;52.298;8.056;2022-10-31T00:16:17;16.50;;;9.75;;
74624;SDS011;63131;52.298;8.056;2022-10-31T00:18:43;15.48;;;9.00;;
74624;SDS011;63131;52.298;8.056;2022-10-31T00:23:33;15.38;;;8.43;;
74624;SDS011;63131;52.298;8.056;2022-10-31T00:26:02;16.07;;;9.07;;
74624;SDS011;63131;52.298;8.056;2022-10-31T00:28:28;15.85;;;8.77;;
74624;SDS011;63131;52.298;8.056;2022-10-31T00:30:57;15.70;;;8.80;;
74624;SDS011;63131;52.298;8.056;2022-10-31T00:33:22;16.33;;;9.65;;
74624;SDS011;63131;52.298;8.056;2022-10-31T00:35:50;15.53;;;8.50;;
74624;SDS011;63131;52.298;8.056;2022-10-31T00:38:16;15.20;;;8.40;;
74624;SDS011;63131;52.298;8.056;2022-10-31T00:40:41;16.93;;;9.47;;
74624;SDS011;63131;52.298;8.056;2022-10-31T00:43:06;18.07;;;9.37;;
74624;SDS011;63131;52.298;8.056;2022-10-31T00:45:31;16.73;;;9.20;;
74624;SDS011;63131;52.298;8.056;2022-10-31T00:47:57;16.87;;;9.13;;
74624;SDS011;63131;52.298;8.056;2022-10-31T00:50:22;17.20;;;9.87;;
74624;SDS011;63131;52.298;8.056;2022-10-31T00:52:47;18.07;;;10.27;;
74624;SDS011;63131;52.298;8.056;2022-10-31T00:55:12;19.13;;;9.23;;
74624;SDS011;63131;52.298;8.056;2022-10-31T00:57:37;17.43;;;9.30;;
74624;SDS011;63131;52.298;8.056;2022-10-31T01:00:03;15.90;;;9.10;;
74624;SDS011;63131;52.298;8.056;2022-10-31T01:02:28;18.77;;;9.93;;
74624;SDS011;63131;52.298;8.056;2022-10-31T01:04:53;18.23;;;9.17;;
74624;SDS011;63131;52.298;8.056;2022-10-31T01:07:18;15.40;;;8.70;;
74624;SDS011;63131;52.298;8.056;2022-10-31T01:09:44;18.73;;;10.53;;
74624;SDS011;63131;52.298;8.056;2022-10-31T01:12:09;18.03;;;9.77;;
74624;SDS011;63131;52.298;8.056;2022-10-31T01:14:34;16.20;;;9.10;;
74624;SDS011;63131;52.298;8.056;2022-10-31T01:16:59;17.97;;;10.03;;
74624;SDS011;63131;52.298;8.056;2022-10-31T01:19:24;19.48;;;10.00;;
74624;SDS011;63131;52.298;8.056;2022-10-31T01:21:50;16.93;;;9.63;;
74624;SDS011;63131;52.298;8.056;2022-10-31T01:24:15;16.48;;;9.57;;
74624;SDS011;63131;52.298;8.056;2022-10-31T01:26:40;16.30;;;9.37;;
74624;SDS011;63131;52.298;8.056;2022-10-31T01:29:06;17.70;;;9.67;;
74624;SDS011;63131;52.298;8.056;2022-10-31T01:31:33;19.50;;;9.98;;
74624;SDS011;63131;52.298;8.056;2022-10-31T01:33:58;15.45;;;8.95;;
74624;SDS011;63131;52.298;8.056;2022-10-31T01:38:49;16.03;;;9.47;;
74624;SDS011;63131;52.298;8.056;2022-10-31T01:41:16;14.07;;;8.60;;
74624;SDS011;63131;52.298;8.056;2022-10-31T01:43:49;15.55;;;9.48;;
74624;SDS011;63131;52.298;8.056;2022-10-31T01:46:15;19.92;;;10.07;;
74624;SDS011;63131;52.298;8.056;2022-10-31T01:48:42;16.73;;;10.23;;
74624;SDS011;63131;52.298;8.056;2022-10-31T01:51:08;17.75;;;8.68;;
74624;SDS011;63131;52.298;8.056;2022-10-31T01:53:33;16.05;;;8.98;;
74624;SDS011;63131;52.298;8.056;2022-10-31T01:56:00;15.15;;;8.15;;
74624;SDS011;63131;52.298;8.056;2022-10-31T01:58:26;17.25;;;9.05;;
74624;SDS011;63131;52.298;8.056;2022-10-31T02:00:53;20.70;;;10.27;;
74624;SDS011;63131;52.298;8.056;2022-10-31T02:03:20;18.30;;;9.68;;
74624;SDS011;63131;52.298;8.056;2022-10-31T02:05:46;15.68;;;9.18;;
74624;SDS011;63131;52.298;8.056;2022-10-31T02:10:43;16.65;;;8.75;;
74624;SDS011;63131;52.298;8.056;2022-10-31T02:13:09;17.98;;;9.65;;
74624;SDS011;63131;52.298;8.056;2022-10-31T02:15:35;19.70;;;9.50;;
74624;SDS011;63131;52.298;8.056;2022-10-31T02:18:00;17.05;;;9.35;;
74624;SDS011;63131;52.298;8.056;2022-10-31T02:20:27;19.13;;;10.27;;
74624;SDS011;63131;52.298;8.056;2022-10-31T02:35:53;14.75;;;8.55;;
74624;SDS011;63131;52.298;8.056;2022-10-31T02:48:27;17.60;;;8.37;;
74624;SDS011;63131;52.298;8.056;2022-10-31T02:50:55;14.30;;;7.60;;
74624;SDS011;63131;52.298;8.056;2022-10-31T02:53:21;16.75;;;9.05;;
74624;SDS011;63131;52.298;8.056;2022-10-31T02:58:13;14.63;;;8.77;;
74624;SDS011;63131;52.298;8.056;2022-10-31T03:11:31;14.90;;;8.35;;
74624;SDS011;63131;52.298;8.056;2022-10-31T03:13:59;16.83;;;9.43;;
74624;SDS011;63131;52.298;8.056;2022-10-31T03:21:30;15.18;;;8.57;;
74624;SDS011;63131;52.298;8.056;2022-10-31T03:23:57;16.67;;;9.23;;
74624;SDS011;63131;52.298;8.056;2022-10-31T03:26:24;15.38;;;8.65;;
74624;SDS011;63131;52.298;8.056;2022-10-31T03:28:53;15.43;;;8.85;;
74624;SDS011;63131;52.298;8.056;2022-10-31T03:31:20;19.45;;;8.60;;
74624;SDS011;63131;52.298;8.056;2022-10-31T03:33:47;15.38;;;8.35;;
74624;SDS011;63131;52.298;8.056;2022-10-31T03:36:14;16.75;;;8.57;;
74624;SDS011;63131;52.298;8.056;2022-10-31T03:38:40;17.77;;;8.95;;
74624;SDS011;63131;52.298;8.056;2022-10-31T03:41:06;18.02;;;8.55;;
74624;SDS011;63131;52.298;8.056;2022-10-31T03:43:36;16.13;;;8.30;;
74624;SDS011;63131;52.298;8.056;2022-10-31T03:46:03;19.38;;;8.98;;
74624;SDS011;63131;52.298;8.056;2022-10-31T03:48:28;22.25;;;8.75;;
74624;SDS011;63131;52.298;8.056;2022-10-31T03:53:44;16.75;;;8.68;;
74624;SDS011;63131;52.298;8.056;2022-10-31T03:56:34;19.30;;;9.20;;
74624;SDS011;63131;52.298;8.056;2022-10-31T03:59:00;20.95;;;9.80;;
74624;SDS011;63131;52.298;8.056;2022-10-31T04:01:26;18.10;;;7.80;;
74624;SDS011;63131;52.298;8.056;2022-10-31T04:03:54;16.05;;;8.60;;
74624;SDS011;63131;52.298;8.056;2022-10-31T04:06:20;17.38;;;9.70;;
74624;SDS011;63131;52.298;8.056;2022-10-31T04:08:51;17.35;;;9.43;;
74624;SDS011;63131;52.298;8.056;2022-10-31T04:11:18;16.58;;;8.20;;
74624;SDS011;63131;52.298;8.056;2022-10-31T04:13:45;16.08;;;8.90;;
74624;SDS011;63131;52.298;8.056;2022-10-31T04:16:11;18.30;;;8.63;;
74624;SDS011;63131;52.298;8.056;2022-10-31T04:21:06;12.95;;;7.75;;
74624;SDS011;63131;52.298;8.056;2022-10-31T04:23:32;15.93;;;8.52;;
74624;SDS011;63131;52.298;8.056;2022-10-31T04:28:23;19.75;;;8.60;;
74624;SDS011;63131;52.298;8.056;2022-10-31T04:30:48;19.93;;;8.57;;
74624;SDS011;63131;52.298;8.056;2022-10-31T04:33:13;18.40;;;8.63;;
74624;SDS011;63131;52.298;8.056;2022-10-31T04:35:38;19.10;;;11.00;;
74624;SDS011;63131;52.298;8.056;2022-10-31T04:38:04;16.48;;;9.20;;
74624;SDS011;63131;52.298;8.056;2022-10-31T04:40:29;19.37;;;9.90;;
74624;SDS011;63131;52.298;8.056;2022-10-31T04:42:54;21.00;;;9.63;;
74624;SDS011;63131;52.298;8.056;2022-10-31T04:45:20;22.67;;;8.83;;
74624;SDS011;63131;52.298;8.056;2022-10-31T04:47:45;17.33;;;8.53;;
74624;SDS011;63131;52.298;8.056;2022-10-31T04:50:10;17.93;;;8.90;;
74624;SDS011;63131;52.298;8.056;2022-10-31T04:52:39;19.10;;;9.70;;
74624;SDS011;63131;52.298;8.056;2022-10-31T04:55:04;17.05;;;8.63;;
74624;SDS011;63131;52.298;8.056;2022-10-31T04:57:29;20.23;;;9.10;;
74624;SDS011;63131;52.298;8.056;2022-10-31T04:59:55;16.80;;;8.03;;
74624;SDS011;63131;52.298;8.056;2022-10-31T05:02:20;19.90;;;9.73;;
74624;SDS011;63131;52.298;8.056;2022-10-31T05:04:45;17.57;;;8.53;;
74624;SDS011;63131;52.298;8.056;2022-10-31T05:07:10;15.83;;;8.90;;
74624;SDS011;63131;52.298;8.056;2022-10-31T05:09:35;20.20;;;9.13;;
74624;SDS011;63131;52.298;8.056;2022-10-31T05:12:01;18.27;;;8.38;;
74624;SDS011;63131;52.298;8.056;2022-10-31T05:14:26;18.73;;;8.97;;
74624;SDS011;63131;52.298;8.056;2022-10-31T05:16:51;18.50;;;9.07;;
74624;SDS011;63131;52.298;8.056;2022-10-31T05:19:16;18.73;;;9.37;;
74624;SDS011;63131;52.298;8.056;2022-10-31T05:21:41;18.57;;;9.40;;
74624;SDS011;63131;52.298;8.056;2022-10-31T05:24:07;21.80;;;9.47;;
74624;SDS011;63131;52.298;8.056;2022-10-31T05:26:32;19.17;;;9.25;;
74624;SDS011;63131;52.298;8.056;2022-10-31T05:28:57;21.27;;;8.77;;
74624;SDS011;63131;52.298;8.056;2022-10-31T05:31:22;22.07;;;9.27;;
74624;SDS011;63131;52.298;8.056;2022-10-31T05:33:48;20.97;;;9.67;;
74624;SDS011;63131;52.298;8.056;2022-10-31T05:36:13;18.40;;;7.83;;
74624;SDS011;63131;52.298;8.056;2022-10-31T05:38:38;16.20;;;8.17;;
74624;SDS011;63131;52.298;8.056;2022-10-31T05:41:03;16.40;;;8.57;;
74624;SDS011;63131;52.298;8.056;2022-10-31T05:43:29;18.60;;;8.60;;
74624;SDS011;63131;52.298;8.056;2022-10-31T05:45:55;18.43;;;8.53;;
74624;SDS011;63131;52.298;8.056;2022-10-31T05:48:20;19.45;;;9.43;;
74624;SDS011;63131;52.298;8.056;2022-10-31T05:50:47;21.27;;;9.07;;
74624;SDS011;63131;52.298;8.056;2022-10-31T05:53:12;19.77;;;8.95;;
74624;SDS011;63131;52.298;8.056;2022-10-31T05:55:37;17.03;;;7.83;;
74624;SDS011;63131;52.298;8.056;2022-10-31T05:58:05;18.38;;;9.45;;
74624;SDS011;63131;52.298;8.056;2022-10-31T06:00:31;20.85;;;8.70;;
74624;SDS011;63131;52.298;8.056;2022-10-31T06:02:57;17.60;;;8.75;;
74624;SDS011;63131;52.298;8.056;2022-10-31T06:05:22;16.92;;;9.25;;
74624;SDS011;63131;52.298;8.056;2022-10-31T06:07:48;18.73;;;8.37;;
74624;SDS011;63131;52.298;8.056;2022-10-31T06:10:13;18.00;;;9.23;;
74624;SDS011;63131;52.298;8.056;2022-10-31T06:12:38;19.63;;;9.63;;
74624;SDS011;63131;52.298;8.056;2022-10-31T06:15:05;18.63;;;9.55;;
74624;SDS011;63131;52.298;8.056;2022-10-31T06:17:31;20.15;;;8.95;;
74624;SDS011;63131;52.298;8.056;2022-10-31T06:19:56;21.92;;;10.27;;
74624;SDS011;63131;52.298;8.056;2022-10-31T06:22:21;20.77;;;10.43;;
74624;SDS011;63131;52.298;8.056;2022-10-31T06:24:47;18.07;;;10.17;;
74624;SDS011;63131;52.298;8.056;2022-10-31T06:27:12;24.13;;;10.30;;
74624;SDS011;63131;52.298;8.056;2022-10-31T06:29:37;27.53;;;10.93;;
74624;SDS011;63131;52.298;8.056;2022-10-31T06:32:02;22.03;;;9.27;;
74624;SDS011;63131;52.298;8.056;2022-10-31T06:34:27;18.97;;;9.67;;
74624;SDS011;63131;52.298;8.056;2022-10-31T06:36:53;20.13;;;10.13;;
74624;SDS011;63131;52.298;8.056;2022-10-31T06:39:18;18.60;;;10.13;;
74624;SDS011;63131;52.298;8.056;2022-10-31T06:41:43;19.87;;;8.80;;
74624;SDS011;63131;52.298;8.056;2022-10-31T06:44:08;21.00;;;10.43;;
74624;SDS011;63131;52.298;8.056;2022-10-31T06:46:33;22.23;;;9.70;;
74624;SDS011;63131;52.298;8.056;2022-10-31T06:48:59;19.13;;;9.93;;
74624;SDS011;63131;52.298;8.056;2022-10-31T06:51:24;19.37;;;10.60;;
74624;SDS011;63131;52.298;8.056;2022-10-31T06:56:15;18.98;;;9.07;;
74624;SDS011;63131;52.298;8.056;2022-10-31T06:58:40;19.10;;;8.73;;
74624;SDS011;63131;52.298;8.056;2022-10-31T07:01:06;23.47;;;10.43;;
74624;SDS011;63131;52.298;8.056;2022-10-31T07:03:31;22.10;;;10.13;;
74624;SDS011;63131;52.298;8.056;2022-10-31T07:05:56;17.13;;;9.40;;
74624;SDS011;63131;52.298;8.056;2022-10-31T07:08:22;19.33;;;9.88;;
74624;SDS011;63131;52.298;8.056;2022-10-31T07:10:51;18.42;;;9.60;;
74624;SDS011;63131;52.298;8.056;2022-10-31T07:13:16;20.33;;;9.88;;
74624;SDS011;63131;52.298;8.056;2022-10-31T07:15:42;17.33;;;8.77;;
74624;SDS011;63131;52.298;8.056;2022-10-31T07:18:09;18.55;;;9.80;;
74624;SDS011;63131;52.298;8.056;2022-10-31T07:20:34;19.70;;;9.80;;
74624;SDS011;63131;52.298;8.056;2022-10-31T07:22:59;21.20;;;9.57;;
74624;SDS011;63131;52.298;8.056;2022-10-31T07:25:25;20.02;;;10.50;;
74624;SDS011;63131;52.298;8.056;2022-10-31T07:27:51;18.58;;;9.70;;
74624;SDS011;63131;52.298;8.056;2022-10-31T07:30:16;17.70;;;9.43;;
74624;SDS011;63131;52.298;8.056;2022-10-31T07:32:45;21.00;;;10.02;;
74624;SDS011;63131;52.298;8.056;2022-10-31T07:35:11;17.95;;;10.30;;
74624;SDS011;63131;52.298;8.056;2022-10-31T07:37:37;22.05;;;11.38;;
74624;SDS011;63131;52.298;8.056;2022-10-31T07:40:03;19.63;;;10.83;;
74624;SDS011;63131;52.298;8.056;2022-10-31T07:42:29;19.02;;;10.50;;
74624;SDS011;63131;52.298;8.056;2022-10-31T07:44:54;19.10;;;10.57;;
74624;SDS011;63131;52.298;8.056;2022-10-31T07:47:19;21.00;;;10.60;;
74624;SDS011;63131;52.298;8.056;2022-10-31T07:49:45;20.73;;;12.32;;
74624;SDS011;63131;52.298;8.056;2022-10-31T07:52:10;21.20;;;13.93;;
74624;SDS011;63131;52.298;8.056;2022-10-31T07:54:35;20.17;;;12.67;;
74624;SDS011;63131;52.298;8.056;2022-10-31T07:57:00;22.80;;;12.53;;
74624;SDS011;63131;52.298;8.056;2022-10-31T07:59:26;21.03;;;13.70;;
74624;SDS011;63131;52.298;8.056;2022-10-31T08:01:52;24.13;;;13.02;;
74624;SDS011;63131;52.298;8.056;2022-10-31T08:04:17;19.30;;;12.55;;
74624;SDS011;63131;52.298;8.056;2022-10-31T08:06:42;20.23;;;13.17;;
74624;SDS011;63131;52.298;8.056;2022-10-31T08:09:07;19.47;;;12.03;;
74624;SDS011;63131;52.298;8.056;2022-10-31T08:11:33;18.43;;;11.53;;
74624;SDS011;63131;52.298;8.056;2022-10-31T08:13:58;16.93;;;9.83;;
74624;SDS011;63131;52.298;8.056;2022-10-31T08:16:23;18.50;;;11.18;;
74624;SDS011;63131;52.298;8.056;2022-10-31T08:18:48;18.47;;;12.07;;
74624;SDS011;63131;52.298;8.056;2022-10-31T08:21:13;18.90;;;10.60;;
74624;SDS011;63131;52.298;8.056;2022-10-31T08:23:39;17.50;;;10.67;;
74624;SDS011;63131;52.298;8.056;2022-10-31T08:26:04;16.60;;;11.20;;
74624;SDS011;63131;52.298;8.056;2022-10-31T08:28:31;19.63;;;11.98;;
74624;SDS011;63131;52.298;8.056;2022-10-31T08:30:57;18.67;;;12.30;;
74624;SDS011;63131;52.298;8.056;2022-10-31T08:33:22;20.63;;;11.95;;
74624;SDS011;63131;52.298;8.056;2022-10-31T08:35:47;23.10;;;13.97;;
74624;SDS011;63131;52.298;8.056;2022-10-31T08:38:13;20.85;;;12.90;;
74624;SDS011;63131;52.298;8.056;2022-10-31T08:40:39;18.75;;;12.05;;
74624;SDS011;63131;52.298;8.056;2022-10-31T08:43:13;18.53;;;11.90;;
74624;SDS011;63131;52.298;8.056;2022-10-31T08:45:39;18.98;;;12.00;;
74624;SDS011;63131;52.298;8.056;2022-10-31T08:48:05;21.08;;;11.77;;
74624;SDS011;63131;52.298;8.056;2022-10-31T08:53:02;19.52;;;11.00;;
74624;SDS011;63131;52.298;8.056;2022-10-31T08:55:28;19.55;;;10.98;;
74624;SDS011;63131;52.298;8.056;2022-10-31T08:57:56;19.10;;;10.80;;
74624;SDS011;63131;52.298;8.056;2022-10-31T09:00:22;19.25;;;12.25;;
74624;SDS011;63131;52.298;8.056;2022-10-31T09:02:47;19.90;;;12.82;;
74624;SDS011;63131;52.298;8.056;2022-10-31T09:05:13;19.88;;;11.55;;
74624;SDS011;63131;52.298;8.056;2022-10-31T09:07:40;21.23;;;12.63;;
74624;SDS011;63131;52.298;8.056;2022-10-31T09:10:06;23.38;;;12.75;;
74624;SDS011;63131;52.298;8.056;2022-10-31T09:14:56;23.25;;;13.35;;
74624;SDS011;63131;52.298;8.056;2022-10-31T09:17:21;27.03;;;15.23;;
74624;SDS011;63131;52.298;8.056;2022-10-31T09:22:12;26.13;;;15.20;;
74624;SDS011;63131;52.298;8.056;2022-10-31T09:24:37;21.83;;;13.97;;
74624;SDS011;63131;52.298;8.056;2022-10-31T09:27:03;25.30;;;15.60;;
74624;SDS011;63131;52.298;8.056;2022-10-31T09:29:28;25.73;;;15.73;;
74624;SDS011;63131;52.298;8.056;2022-10-31T09:31:53;25.23;;;15.03;;
74624;SDS011;63131;52.298;8.056;2022-10-31T09:34:20;30.92;;;16.80;;
74624;SDS011;63131;52.298;8.056;2022-10-31T09:39:11;25.93;;;14.43;;
74624;SDS011;63131;52.298;8.056;2022-10-31T09:44:14;26.83;;;15.57;;
74624;SDS011;63131;52.298;8.056;2022-10-31T09:51:37;28.02;;;15.38;;
74624;SDS011;63131;52.298;8.056;2022-10-31T09:54:06;25.58;;;14.73;;
74624;SDS011;63131;52.298;8.056;2022-10-31T09:56:33;27.25;;;15.80;;
74624;SDS011;63131;52.298;8.056;2022-10-31T09:59:00;29.45;;;15.52;;
74624;SDS011;63131;52.298;8.056;2022-10-31T10:01:32;25.85;;;14.40;;
74624;SDS011;63131;52.298;8.056;2022-10-31T10:06:46;28.17;;;13.27;;
74624;SDS011;63131;52.298;8.056;2022-10-31T10:09:12;24.73;;;14.82;;
74624;SDS011;63131;52.298;8.056;2022-10-31T10:26:43;19.10;;;10.23;;
74624;SDS011;63131;52.298;8.056;2022-10-31T10:29:22;19.70;;;10.02;;
74624;SDS011;63131;52.298;8.056;2022-10-31T10:31:49;20.38;;;11.02;;
74624;SDS011;63131;52.298;8.056;2022-10-31T10:34:19;20.92;;;10.82;;
74624;SDS011;63131;52.298;8.056;2022-10-31T10:36:50;18.75;;;10.40;;
74624;SDS011;63131;52.298;8.056;2022-10-31T10:41:43;19.40;;;8.93;;
74624;SDS011;63131;52.298;8.056;2022-10-31T10:44:10;18.55;;;9.23;;
74624;SDS011;63131;52.298;8.056;2022-10-31T10:46:51;20.25;;;10.65;;
74624;SDS011;63131;52.298;8.056;2022-10-31T10:49:40;19.25;;;9.90;;
74624;SDS011;63131;52.298;8.056;2022-10-31T10:52:11;19.35;;;9.98;;
74624;SDS011;63131;52.298;8.056;2022-10-31T10:59:34;20.88;;;10.75;;
74624;SDS011;63131;52.298;8.056;2022-10-31T11:02:00;18.00;;;10.50;;
74624;SDS011;63131;52.298;8.056;2022-10-31T11:06:57;21.38;;;9.80;;
74624;SDS011;63131;52.298;8.056;2022-10-31T11:09:22;19.88;;;11.10;;
74624;SDS011;63131;52.298;8.056;2022-10-31T11:11:47;19.60;;;8.60;;
74624;SDS011;63131;52.298;8.056;2022-10-31T11:14:13;21.00;;;11.25;;
74624;SDS011;63131;52.298;8.056;2022-10-31T11:16:41;18.35;;;9.95;;
74624;SDS011;63131;52.298;8.056;2022-10-31T11:19:12;20.45;;;9.77;;
74624;SDS011;63131;52.298;8.056;2022-10-31T11:21:41;16.70;;;9.45;;
74624;SDS011;63131;52.298;8.056;2022-10-31T11:26:35;19.27;;;9.30;;
74624;SDS011;63131;52.298;8.056;2022-10-31T11:29:02;19.20;;;10.05;;
74624;SDS011;63131;52.298;8.056;2022-10-31T11:31:28;17.60;;;8.90;;
74624;SDS011;63131;52.298;8.056;2022-10-31T11:33:58;15.60;;;8.30;;
74624;SDS011;63131;52.298;8.056;2022-10-31T11:36:29;17.58;;;8.52;;
74624;SDS011;63131;52.298;8.056;2022-10-31T11:38:55;17.98;;;9.05;;
74624;SDS011;63131;52.298;8.056;2022-10-31T11:41:30;14.93;;;8.10;;
74624;SDS011;63131;52.298;8.056;2022-10-31T11:46:34;15.53;;;6.87;;
74624;SDS011;63131;52.298;8.056;2022-10-31T11:49:00;18.65;;;7.60;;
74624;SDS011;63131;52.298;8.056;2022-10-31T11:51:31;14.10;;;6.38;;
74624;SDS011;63131;52.298;8.056;2022-10-31T11:53:58;15.65;;;6.60;;
74624;SDS011;63131;52.298;8.056;2022-10-31T11:56:24;14.80;;;6.70;;
74624;SDS011;63131;52.298;8.056;2022-10-31T11:58:56;15.10;;;7.10;;
74624;SDS011;63131;52.298;8.056;2022-10-31T12:01:26;16.05;;;6.75;;
74624;SDS011;63131;52.298;8.056;2022-10-31T12:03:54;18.73;;;10.05;;
74624;SDS011;63131;52.298;8.056;2022-10-31T12:08:48;16.90;;;8.23;;
74624;SDS011;63131;52.298;8.056;2022-10-31T12:11:17;15.60;;;7.22;;
74624;SDS011;63131;52.298;8.056;2022-10-31T12:13:59;16.45;;;8.20;;
74624;SDS011;63131;52.298;8.056;2022-10-31T12:16:36;14.43;;;7.50;;
74624;SDS011;63131;52.298;8.056;2022-10-31T12:30:20;9.45;;;3.78;;
74624;SDS011;63131;52.298;8.056;2022-10-31T12:32:56;10.38;;;4.20;;
74624;SDS011;63131;52.298;8.056;2022-10-31T12:43:16;10.80;;;3.25;;
74624;SDS011;63131;52.298;8.056;2022-10-31T12:53:45;8.05;;;3.28;;
74624;SDS011;63131;52.298;8.056;2022-10-31T12:59:16;11.13;;;3.80;;
74624;SDS011;63131;52.298;8.056;2022-10-31T13:01:47;7.85;;;2.78;;
74624;SDS011;63131;52.298;8.056;2022-10-31T13:04:15;10.07;;;4.18;;
74624;SDS011;63131;52.298;8.056;2022-10-31T13:06:44;8.35;;;3.70;;
74624;SDS011;63131;52.298;8.056;2022-10-31T13:09:13;10.57;;;4.18;;
74624;SDS011;63131;52.298;8.056;2022-10-31T13:11:42;8.65;;;3.63;;
74624;SDS011;63131;52.298;8.056;2022-10-31T13:16:38;10.48;;;4.57;;
74624;SDS011;63131;52.298;8.056;2022-10-31T13:19:16;12.93;;;6.32;;
74624;SDS011;63131;52.298;8.056;2022-10-31T13:24:17;14.40;;;5.35;;
74624;SDS011;63131;52.298;8.056;2022-10-31T13:26:46;12.85;;;5.97;;
74624;SDS011;63131;52.298;8.056;2022-10-31T13:29:20;15.68;;;6.82;;
74624;SDS011;63131;52.298;8.056;2022-10-31T13:31:47;15.80;;;8.27;;
74624;SDS011;63131;52.298;8.056;2022-10-31T13:36:45;15.13;;;7.57;;
74624;SDS011;63131;52.298;8.056;2022-10-31T13:44:23;15.37;;;7.13;;
74624;SDS011;63131;52.298;8.056;2022-10-31T13:46:49;15.98;;;7.57;;
74624;SDS011;63131;52.298;8.056;2022-10-31T13:57:01;17.80;;;7.87;;
74624;SDS011;63131;52.298;8.056;2022-10-31T13:59:29;16.17;;;8.05;;
74624;SDS011;63131;52.298;8.056;2022-10-31T14:01:57;16.17;;;7.63;;
74624;SDS011;63131;52.298;8.056;2022-10-31T14:04:29;14.80;;;8.20;;
74624;SDS011;63131;52.298;8.056;2022-10-31T14:11:47;16.63;;;7.50;;
74624;SDS011;63131;52.298;8.056;2022-10-31T14:14:13;16.05;;;7.90;;
74624;SDS011;63131;52.298;8.056;2022-10-31T14:16:38;18.00;;;7.65;;
74624;SDS011;63131;52.298;8.056;2022-10-31T14:19:06;16.58;;;7.85;;
74624;SDS011;63131;52.298;8.056;2022-10-31T14:21:40;15.68;;;7.65;;
74624;SDS011;63131;52.298;8.056;2022-10-31T14:31:43;21.70;;;9.13;;
74624;SDS011;63131;52.298;8.056;2022-10-31T14:34:23;16.60;;;7.50;;
74624;SDS011;63131;52.298;8.056;2022-10-31T14:42:10;17.65;;;8.48;;
74624;SDS011;63131;52.298;8.056;2022-10-31T14:44:42;19.95;;;8.30;;
74624;SDS011;63131;52.298;8.056;2022-10-31T14:47:14;18.67;;;9.10;;
74624;SDS011;63131;52.298;8.056;2022-10-31T14:52:16;17.10;;;8.13;;
74624;SDS011;63131;52.298;8.056;2022-10-31T14:54:46;15.23;;;7.93;;
74624;SDS011;63131;52.298;8.056;2022-10-31T14:57:14;17.05;;;7.65;;
74624;SDS011;63131;52.298;8.056;2022-10-31T14:59:41;16.00;;;8.15;;
74624;SDS011;63131;52.298;8.056;2022-10-31T15:02:16;18.02;;;7.93;;
74624;SDS011;63131;52.298;8.056;2022-10-31T15:04:44;15.25;;;7.10;;
74624;SDS011;63131;52.298;8.056;2022-10-31T15:07:19;19.10;;;7.57;;
74624;SDS011;63131;52.298;8.056;2022-10-31T15:09:45;15.43;;;8.38;;
74624;SDS011;63131;52.298;8.056;2022-10-31T15:12:27;15.73;;;7.50;;
74624;SDS011;63131;52.298;8.056;2022-10-31T15:14:53;20.33;;;9.90;;
74624;SDS011;63131;52.298;8.056;2022-10-31T15:17:18;19.23;;;8.48;;
74624;SDS011;63131;52.298;8.056;2022-10-31T15:19:44;15.82;;;8.00;;
74624;SDS011;63131;52.298;8.056;2022-10-31T15:22:10;14.65;;;7.35;;
74624;SDS011;63131;52.298;8.056;2022-10-31T15:24:38;18.75;;;7.38;;
74624;SDS011;63131;52.298;8.056;2022-10-31T15:27:06;18.63;;;7.97;;
74624;SDS011;63131;52.298;8.056;2022-10-31T15:29:35;16.15;;;8.48;;
74624;SDS011;63131;52.298;8.056;2022-10-31T15:32:08;17.63;;;8.13;;
74624;SDS011;63131;52.298;8.056;2022-10-31T15:34:39;15.15;;;8.23;;
74624;SDS011;63131;52.298;8.056;2022-10-31T15:37:04;17.55;;;7.80;;
74624;SDS011;63131;52.298;8.056;2022-10-31T15:39:30;16.73;;;7.78;;
74624;SDS011;63131;52.298;8.056;2022-10-31T15:41:56;16.40;;;7.67;;
74624;SDS011;63131;52.298;8.056;2022-10-31T15:46:56;16.77;;;8.20;;
74624;SDS011;63131;52.298;8.056;2022-10-31T15:51:54;15.80;;;7.75;;
74624;SDS011;63131;52.298;8.056;2022-10-31T15:54:19;13.90;;;6.28;;
74624;SDS011;63131;52.298;8.056;2022-10-31T15:59:28;18.50;;;7.30;;
74624;SDS011;63131;52.298;8.056;2022-10-31T16:01:55;15.05;;;7.22;;
74624;SDS011;63131;52.298;8.056;2022-10-31T16:04:23;18.63;;;7.72;;
74624;SDS011;63131;52.298;8.056;2022-10-31T16:07:02;13.95;;;6.65;;
74624;SDS011;63131;52.298;8.056;2022-10-31T16:09:27;15.18;;;7.28;;
74624;SDS011;63131;52.298;8.056;2022-10-31T16:11:52;16.17;;;7.13;;
74624;SDS011;63131;52.298;8.056;2022-10-31T16:14:22;15.63;;;6.97;;
74624;SDS011;63131;52.298;8.056;2022-10-31T16:16:48;15.07;;;7.95;;
74624;SDS011;63131;52.298;8.056;2022-10-31T16:24:17;14.35;;;7.55;;
74624;SDS011;63131;52.298;8.056;2022-10-31T16:26:50;15.60;;;8.30;;
74624;SDS011;63131;52.298;8.056;2022-10-31T16:32:00;18.55;;;8.10;;
74624;SDS011;63131;52.298;8.056;2022-10-31T16:34:25;16.63;;;7.63;;
74624;SDS011;63131;52.298;8.056;2022-10-31T16:39:16;14.20;;;6.88;;
74624;SDS011;63131;52.298;8.056;2022-10-31T16:41:42;15.05;;;7.22;;
74624;SDS011;63131;52.298;8.056;2022-10-31T16:44:24;13.98;;;7.53;;
74624;SDS011;63131;52.298;8.056;2022-10-31T16:49:46;14.98;;;7.47;;
74624;SDS011;63131;52.298;8.056;2022-10-31T16:52:11;15.60;;;7.88;;
74624;SDS011;63131;52.298;8.056;2022-10-31T16:54:37;13.48;;;7.15;;
74624;SDS011;63131;52.298;8.056;2022-10-31T16:57:04;15.40;;;7.28;;
74624;SDS011;63131;52.298;8.056;2022-10-31T17:01:54;15.85;;;6.60;;
74624;SDS011;63131;52.298;8.056;2022-10-31T17:06:45;15.23;;;7.90;;
74624;SDS011;63131;52.298;8.056;2022-10-31T17:11:35;15.70;;;7.05;;
74624;SDS011;63131;52.298;8.056;2022-10-31T17:16:26;13.85;;;6.70;;
74624;SDS011;63131;52.298;8.056;2022-10-31T17:21:22;14.05;;;7.13;;
74624;SDS011;63131;52.298;8.056;2022-10-31T17:23:48;14.30;;;6.88;;
74624;SDS011;63131;52.298;8.056;2022-10-31T17:26:14;15.90;;;7.25;;
74624;SDS011;63131;52.298;8.056;2022-10-31T17:31:04;14.98;;;6.35;;
74624;SDS011;63131;52.298;8.056;2022-10-31T17:35:55;13.40;;;7.20;;
74624;SDS011;63131;52.298;8.056;2022-10-31T17:40:45;15.33;;;6.43;;
74624;SDS011;63131;52.298;8.056;2022-10-31T17:45:37;13.27;;;6.63;;
74624;SDS011;63131;52.298;8.056;2022-10-31T17:48:03;16.30;;;6.97;;
74624;SDS011;63131;52.298;8.056;2022-10-31T17:52:53;16.48;;;6.75;;
74624;SDS011;63131;52.298;8.056;2022-10-31T17:57:44;15.00;;;8.07;;
74624;SDS011;63131;52.298;8.056;2022-10-31T18:02:34;15.63;;;9.52;;
74624;SDS011;63131;52.298;8.056;2022-10-31T18:07:26;14.32;;;6.60;;
74624;SDS011;63131;52.298;8.056;2022-10-31T18:12:16;15.25;;;7.22;;
74624;SDS011;63131;52.298;8.056;2022-10-31T18:17:07;17.20;;;6.40;;
74624;SDS011;63131;52.298;8.056;2022-10-31T18:21:57;16.30;;;6.65;;
74624;SDS011;63131;52.298;8.056;2022-10-31T18:26:48;13.13;;;7.22;;
74624;SDS011;63131;52.298;8.056;2022-10-31T18:29:13;18.57;;;6.87;;
74624;SDS011;63131;52.298;8.056;2022-10-31T18:31:38;16.70;;;7.82;;
74624;SDS011;63131;52.298;8.056;2022-10-31T18:36:29;16.88;;;6.95;;
74624;SDS011;63131;52.298;8.056;2022-10-31T18:41:19;17.60;;;7.87;;
74624;SDS011;63131;52.298;8.056;2022-10-31T18:43:45;14.20;;;7.10;;